Terminal Aerodrome Forecast
Issued by NWS

Home | Current Version | Previous Version | Text Only | Print | Product List | Glossary On
Versions: 1 2 3 4 5 6 7 8 9 10 11 12 13 14 15 16 17 18
000
FTUS46 KLOX 281736
TAFLGB
TAF
KLGB 281736Z 2818/2918 VRB03KT P6SM SKC
     FM281900 21008KT P6SM SKC
     FM290000 30008KT P6SM SKC
     FM290900 VRB03KT 6SM BR FEW010
     FM291100 VRB03KT 5SM BR OVC010=

USA.gov is the U.S. government's official web portal to all federal, state and local government web resources and services.